sensor_id;sensor_type;location;lat;lon;timestamp;P1;durP1;ratioP1;P2;durP2;ratioP2
22425;SDS011;11380;50.822;15.790;2023-03-26T00:04:57;50.53;;;46.10;;
22425;SDS011;11380;50.822;15.790;2023-03-26T00:10:05;50.38;;;46.00;;
22425;SDS011;11380;50.822;15.790;2023-03-26T00:15:12;50.33;;;45.93;;
22425;SDS011;11380;50.822;15.790;2023-03-26T00:20:22;50.73;;;46.30;;
22425;SDS011;11380;50.822;15.790;2023-03-26T00:25:29;50.08;;;45.78;;
22425;SDS011;11380;50.822;15.790;2023-03-26T00:30:38;51.07;;;46.40;;
22425;SDS011;11380;50.822;15.790;2023-03-26T00:35:45;50.53;;;46.13;;
22425;SDS011;11380;50.822;15.790;2023-03-26T00:40:58;50.87;;;46.40;;
22425;SDS011;11380;50.822;15.790;2023-03-26T00:46:08;51.37;;;46.77;;
22425;SDS011;11380;50.822;15.790;2023-03-26T00:51:17;50.83;;;46.33;;
22425;SDS011;11380;50.822;15.790;2023-03-26T00:56:26;51.17;;;46.60;;
22425;SDS011;11380;50.822;15.790;2023-03-26T01:01:33;51.40;;;46.60;;
22425;SDS011;11380;50.822;15.790;2023-03-26T01:06:41;50.97;;;46.27;;
22425;SDS011;11380;50.822;15.790;2023-03-26T01:11:48;50.67;;;46.07;;
22425;SDS011;11380;50.822;15.790;2023-03-26T01:16:56;51.23;;;46.58;;
22425;SDS011;11380;50.822;15.790;2023-03-26T01:22:07;50.23;;;45.83;;
22425;SDS011;11380;50.822;15.790;2023-03-26T01:49:05;50.53;;;46.13;;
22425;SDS011;11380;50.822;15.790;2023-03-26T01:54:18;50.20;;;45.80;;
22425;SDS011;11380;50.822;15.790;2023-03-26T01:59:35;50.97;;;46.47;;
22425;SDS011;11380;50.822;15.790;2023-03-26T02:04:54;51.35;;;46.77;;
22425;SDS011;11380;50.822;15.790;2023-03-26T02:10:05;50.90;;;46.37;;
22425;SDS011;11380;50.822;15.790;2023-03-26T02:15:20;50.63;;;46.23;;
22425;SDS011;11380;50.822;15.790;2023-03-26T02:20:27;50.98;;;46.45;;
22425;SDS011;11380;50.822;15.790;2023-03-26T02:25:34;50.83;;;46.35;;
22425;SDS011;11380;50.822;15.790;2023-03-26T02:30:43;50.83;;;46.13;;
22425;SDS011;11380;50.822;15.790;2023-03-26T02:35:51;50.80;;;46.30;;
22425;SDS011;11380;50.822;15.790;2023-03-26T02:41:01;51.07;;;46.57;;
22425;SDS011;11380;50.822;15.790;2023-03-26T02:46:08;50.40;;;46.00;;
22425;SDS011;11380;50.822;15.790;2023-03-26T02:51:15;50.50;;;46.18;;
22425;SDS011;11380;50.822;15.790;2023-03-26T02:56:23;50.48;;;46.08;;
22425;SDS011;11380;50.822;15.790;2023-03-26T03:01:29;51.30;;;46.57;;
22425;SDS011;11380;50.822;15.790;2023-03-26T03:06:38;51.23;;;46.73;;
22425;SDS011;11380;50.822;15.790;2023-03-26T03:11:47;51.23;;;46.53;;
22425;SDS011;11380;50.822;15.790;2023-03-26T03:16:55;51.27;;;46.77;;
22425;SDS011;11380;50.822;15.790;2023-03-26T03:22:03;50.23;;;45.73;;
22425;SDS011;11380;50.822;15.790;2023-03-26T03:27:11;50.73;;;46.33;;
22425;SDS011;11380;50.822;15.790;2023-03-26T03:32:19;51.10;;;46.58;;
22425;SDS011;11380;50.822;15.790;2023-03-26T03:37:31;50.70;;;46.30;;
22425;SDS011;11380;50.822;15.790;2023-03-26T03:42:37;50.48;;;45.95;;
22425;SDS011;11380;50.822;15.790;2023-03-26T03:47:45;50.78;;;46.33;;
22425;SDS011;11380;50.822;15.790;2023-03-26T03:52:52;50.93;;;46.43;;
22425;SDS011;11380;50.822;15.790;2023-03-26T04:03:06;50.90;;;46.45;;
22425;SDS011;11380;50.822;15.790;2023-03-26T04:08:15;51.00;;;46.53;;
22425;SDS011;11380;50.822;15.790;2023-03-26T04:13:22;50.50;;;46.10;;
22425;SDS011;11380;50.822;15.790;2023-03-26T04:18:29;50.40;;;45.97;;
22425;SDS011;11380;50.822;15.790;2023-03-26T04:23:36;50.03;;;45.70;;
22425;SDS011;11380;50.822;15.790;2023-03-26T04:28:52;50.67;;;46.27;;
22425;SDS011;11380;50.822;15.790;2023-03-26T04:34:05;50.63;;;46.23;;
22425;SDS011;11380;50.822;15.790;2023-03-26T04:39:17;50.50;;;46.10;;
22425;SDS011;11380;50.822;15.790;2023-03-26T04:44:27;50.77;;;46.27;;
22425;SDS011;11380;50.822;15.790;2023-03-26T04:54:42;50.30;;;45.80;;
22425;SDS011;11380;50.822;15.790;2023-03-26T04:59:50;51.10;;;46.17;;
22425;SDS011;11380;50.822;15.790;2023-03-26T05:04:57;50.30;;;45.90;;
22425;SDS011;11380;50.822;15.790;2023-03-26T05:10:06;50.33;;;45.93;;
22425;SDS011;11380;50.822;15.790;2023-03-26T05:15:16;50.67;;;46.17;;
22425;SDS011;11380;50.822;15.790;2023-03-26T05:20:25;50.55;;;46.10;;
22425;SDS011;11380;50.822;15.790;2023-03-26T05:25:34;50.10;;;45.70;;
22425;SDS011;11380;50.822;15.790;2023-03-26T05:30:42;50.80;;;46.33;;
22425;SDS011;11380;50.822;15.790;2023-03-26T05:41:12;50.00;;;45.70;;
22425;SDS011;11380;50.822;15.790;2023-03-26T05:46:20;49.42;;;45.23;;
22425;SDS011;11380;50.822;15.790;2023-03-26T05:51:28;49.90;;;45.60;;
22425;SDS011;11380;50.822;15.790;2023-03-26T05:56:36;50.37;;;45.97;;
22425;SDS011;11380;50.822;15.790;2023-03-26T06:01:43;50.27;;;45.90;;
22425;SDS011;11380;50.822;15.790;2023-03-26T06:11:56;50.00;;;45.70;;
22425;SDS011;11380;50.822;15.790;2023-03-26T06:17:04;50.10;;;45.77;;
22425;SDS011;11380;50.822;15.790;2023-03-26T06:22:11;50.30;;;45.90;;
22425;SDS011;11380;50.822;15.790;2023-03-26T06:27:19;49.87;;;45.57;;
22425;SDS011;11380;50.822;15.790;2023-03-26T06:32:26;50.70;;;46.28;;
22425;SDS011;11380;50.822;15.790;2023-03-26T06:37:35;50.13;;;45.73;;
22425;SDS011;11380;50.822;15.790;2023-03-26T06:42:42;50.13;;;45.83;;
22425;SDS011;11380;50.822;15.790;2023-03-26T06:47:53;50.37;;;45.97;;
22425;SDS011;11380;50.822;15.790;2023-03-26T06:58:06;50.60;;;46.20;;
22425;SDS011;11380;50.822;15.790;2023-03-26T07:03:16;50.65;;;46.23;;
22425;SDS011;11380;50.822;15.790;2023-03-26T07:08:23;50.28;;;45.88;;
22425;SDS011;11380;50.822;15.790;2023-03-26T07:13:29;49.93;;;45.55;;
22425;SDS011;11380;50.822;15.790;2023-03-26T07:18:37;50.33;;;45.93;;
22425;SDS011;11380;50.822;15.790;2023-03-26T07:23:44;50.87;;;46.27;;
22425;SDS011;11380;50.822;15.790;2023-03-26T07:29:00;50.70;;;46.20;;
22425;SDS011;11380;50.822;15.790;2023-03-26T07:34:29;50.55;;;46.08;;
22425;SDS011;11380;50.822;15.790;2023-03-26T07:39:45;50.93;;;46.33;;
22425;SDS011;11380;50.822;15.790;2023-03-26T07:50:45;49.95;;;45.55;;
22425;SDS011;11380;50.822;15.790;2023-03-26T08:06:55;50.70;;;46.10;;
22425;SDS011;11380;50.822;15.790;2023-03-26T08:12:09;51.30;;;46.60;;
22425;SDS011;11380;50.822;15.790;2023-03-26T08:17:37;50.63;;;46.10;;
22425;SDS011;11380;50.822;15.790;2023-03-26T08:23:15;51.37;;;46.67;;
22425;SDS011;11380;50.822;15.790;2023-03-26T08:28:35;51.63;;;46.90;;
22425;SDS011;11380;50.822;15.790;2023-03-26T08:33:54;51.37;;;46.60;;
22425;SDS011;11380;50.822;15.790;2023-03-26T08:39:02;51.77;;;46.97;;
22425;SDS011;11380;50.822;15.790;2023-03-26T08:56:02;51.77;;;47.03;;
22425;SDS011;11380;50.822;15.790;2023-03-26T09:29:06;51.53;;;46.73;;
22425;SDS011;11380;50.822;15.790;2023-03-26T09:40:31;51.53;;;46.73;;
22425;SDS011;11380;50.822;15.790;2023-03-26T09:56:49;51.70;;;46.90;;
22425;SDS011;11380;50.822;15.790;2023-03-26T10:08:04;52.40;;;47.47;;
22425;SDS011;11380;50.822;15.790;2023-03-26T10:30:33;52.53;;;47.63;;
22425;SDS011;11380;50.822;15.790;2023-03-26T10:36:08;52.73;;;47.77;;
22425;SDS011;11380;50.822;15.790;2023-03-26T10:47:04;52.43;;;47.37;;
22425;SDS011;11380;50.822;15.790;2023-03-26T10:52:45;53.37;;;48.17;;
22425;SDS011;11380;50.822;15.790;2023-03-26T10:58:27;52.10;;;47.20;;
22425;SDS011;11380;50.822;15.790;2023-03-26T11:14:21;52.77;;;47.67;;
22425;SDS011;11380;50.822;15.790;2023-03-26T11:19:51;53.37;;;48.17;;
22425;SDS011;11380;50.822;15.790;2023-03-26T11:25:16;52.80;;;47.70;;
22425;SDS011;11380;50.822;15.790;2023-03-26T11:30:27;53.13;;;47.93;;
22425;SDS011;11380;50.822;15.790;2023-03-26T11:36:04;52.90;;;47.80;;
22425;SDS011;11380;50.822;15.790;2023-03-26T11:41:21;53.60;;;48.20;;
22425;SDS011;11380;50.822;15.790;2023-03-26T11:46:30;53.17;;;48.00;;
22425;SDS011;11380;50.822;15.790;2023-03-26T11:51:41;52.87;;;47.80;;
22425;SDS011;11380;50.822;15.790;2023-03-26T12:07:32;52.20;;;47.30;;
22425;SDS011;11380;50.822;15.790;2023-03-26T12:12:40;52.07;;;47.17;;
22425;SDS011;11380;50.822;15.790;2023-03-26T12:17:52;51.70;;;46.90;;
22425;SDS011;11380;50.822;15.790;2023-03-26T12:23:04;52.47;;;47.37;;
22425;SDS011;11380;50.822;15.790;2023-03-26T12:33:27;52.40;;;47.33;;
22425;SDS011;11380;50.822;15.790;2023-03-26T12:38:40;52.27;;;47.17;;
22425;SDS011;11380;50.822;15.790;2023-03-26T12:43:51;52.17;;;47.17;;
22425;SDS011;11380;50.822;15.790;2023-03-26T12:49:04;52.20;;;47.30;;
22425;SDS011;11380;50.822;15.790;2023-03-26T12:54:20;52.23;;;47.27;;
22425;SDS011;11380;50.822;15.790;2023-03-26T13:10:57;51.87;;;47.00;;
22425;SDS011;11380;50.822;15.790;2023-03-26T13:22:04;52.47;;;47.40;;
22425;SDS011;11380;50.822;15.790;2023-03-26T13:44:32;52.80;;;47.75;;
22425;SDS011;11380;50.822;15.790;2023-03-26T13:50:02;52.67;;;47.60;;
22425;SDS011;11380;50.822;15.790;2023-03-26T13:55:41;53.27;;;48.07;;
22425;SDS011;11380;50.822;15.790;2023-03-26T14:23:24;52.57;;;47.57;;
22425;SDS011;11380;50.822;15.790;2023-03-26T14:45:58;55.53;;;49.67;;
22425;SDS011;11380;50.822;15.790;2023-03-26T15:31:22;54.46;;;49.04;;
22425;SDS011;11380;50.822;15.790;2023-03-26T15:42:48;56.00;;;50.40;;
22425;SDS011;11380;50.822;15.790;2023-03-26T15:48:20;54.83;;;49.37;;
22425;SDS011;11380;50.822;15.790;2023-03-26T16:04:59;51.37;;;46.57;;
22425;SDS011;11380;50.822;15.790;2023-03-26T16:10:15;50.90;;;46.20;;
22425;SDS011;11380;50.822;15.790;2023-03-26T16:37:42;50.47;;;45.77;;
22425;SDS011;11380;50.822;15.790;2023-03-26T16:48:40;52.53;;;47.53;;
22425;SDS011;11380;50.822;15.790;2023-03-26T16:54:15;51.60;;;46.80;;
22425;SDS011;11380;50.822;15.790;2023-03-26T17:10:37;58.47;;;52.33;;
22425;SDS011;11380;50.822;15.790;2023-03-26T17:16:11;56.07;;;50.43;;
22425;SDS011;11380;50.822;15.790;2023-03-26T17:27:00;55.30;;;49.60;;
22425;SDS011;11380;50.822;15.790;2023-03-26T17:32:11;53.77;;;48.57;;
22425;SDS011;11380;50.822;15.790;2023-03-26T17:47:52;52.67;;;47.70;;
22425;SDS011;11380;50.822;15.790;2023-03-26T17:53:18;56.13;;;50.60;;
22425;SDS011;11380;50.822;15.790;2023-03-26T17:59:04;55.80;;;50.23;;
22425;SDS011;11380;50.822;15.790;2023-03-26T18:03:58;56.47;;;50.50;;
22425;SDS011;11380;50.822;15.790;2023-03-26T18:09:08;56.83;;;50.73;;
22425;SDS011;11380;50.822;15.790;2023-03-26T18:25:30;53.17;;;48.20;;
22425;SDS011;11380;50.822;15.790;2023-03-26T18:30:46;57.10;;;51.40;;
22425;SDS011;11380;50.822;15.790;2023-03-26T18:35:56;62.25;;;55.52;;
22425;SDS011;11380;50.822;15.790;2023-03-26T18:41:06;55.40;;;50.00;;
22425;SDS011;11380;50.822;15.790;2023-03-26T18:46:24;52.70;;;47.73;;
22425;SDS011;11380;50.822;15.790;2023-03-26T18:51:32;53.77;;;48.77;;
22425;SDS011;11380;50.822;15.790;2023-03-26T18:56:41;55.37;;;49.87;;
22425;SDS011;11380;50.822;15.790;2023-03-26T19:01:52;53.47;;;48.17;;
22425;SDS011;11380;50.822;15.790;2023-03-26T19:07:07;52.90;;;48.00;;
22425;SDS011;11380;50.822;15.790;2023-03-26T19:12:31;54.27;;;49.07;;
22425;SDS011;11380;50.822;15.790;2023-03-26T19:17:40;54.67;;;49.20;;
22425;SDS011;11380;50.822;15.790;2023-03-26T19:22:51;56.57;;;50.97;;
22425;SDS011;11380;50.822;15.790;2023-03-26T19:27:59;54.57;;;49.23;;
22425;SDS011;11380;50.822;15.790;2023-03-26T19:33:15;55.30;;;49.90;;
22425;SDS011;11380;50.822;15.790;2023-03-26T19:38:27;56.67;;;51.17;;
22425;SDS011;11380;50.822;15.790;2023-03-26T19:43:40;56.37;;;50.87;;
22425;SDS011;11380;50.822;15.790;2023-03-26T19:48:57;57.50;;;51.67;;
22425;SDS011;11380;50.822;15.790;2023-03-26T19:54:12;56.20;;;50.47;;
22425;SDS011;11380;50.822;15.790;2023-03-26T19:59:23;55.92;;;50.43;;
22425;SDS011;11380;50.822;15.790;2023-03-26T20:04:32;57.23;;;51.33;;
22425;SDS011;11380;50.822;15.790;2023-03-26T20:09:40;56.80;;;51.13;;
22425;SDS011;11380;50.822;15.790;2023-03-26T20:14:48;58.27;;;52.40;;
22425;SDS011;11380;50.822;15.790;2023-03-26T20:19:56;58.87;;;52.53;;
22425;SDS011;11380;50.822;15.790;2023-03-26T20:25:27;58.00;;;51.90;;
22425;SDS011;11380;50.822;15.790;2023-03-26T20:30:22;62.70;;;55.53;;
22425;SDS011;11380;50.822;15.790;2023-03-26T20:35:34;64.80;;;56.80;;
22425;SDS011;11380;50.822;15.790;2023-03-26T20:40:43;65.07;;;55.07;;
22425;SDS011;11380;50.822;15.790;2023-03-26T20:45:51;61.20;;;54.70;;
22425;SDS011;11380;50.822;15.790;2023-03-26T20:50:59;59.60;;;53.37;;
22425;SDS011;11380;50.822;15.790;2023-03-26T20:56:13;59.03;;;53.13;;
22425;SDS011;11380;50.822;15.790;2023-03-26T21:01:24;60.83;;;54.43;;
22425;SDS011;11380;50.822;15.790;2023-03-26T21:06:30;60.65;;;54.42;;
22425;SDS011;11380;50.822;15.790;2023-03-26T21:11:42;58.80;;;52.93;;
22425;SDS011;11380;50.822;15.790;2023-03-26T21:17:14;61.30;;;54.57;;
22425;SDS011;11380;50.822;15.790;2023-03-26T21:22:34;58.97;;;52.77;;
22425;SDS011;11380;50.822;15.790;2023-03-26T21:33:16;63.73;;;56.80;;
22425;SDS011;11380;50.822;15.790;2023-03-26T21:38:24;64.40;;;57.47;;
22425;SDS011;11380;50.822;15.790;2023-03-26T21:43:33;68.67;;;58.70;;
22425;SDS011;11380;50.822;15.790;2023-03-26T21:48:41;64.13;;;55.97;;
22425;SDS011;11380;50.822;15.790;2023-03-26T21:53:49;62.83;;;56.00;;
22425;SDS011;11380;50.822;15.790;2023-03-26T21:59:03;60.93;;;54.57;;
22425;SDS011;11380;50.822;15.790;2023-03-26T22:04:36;62.80;;;56.00;;
22425;SDS011;11380;50.822;15.790;2023-03-26T22:09:53;62.20;;;54.67;;
22425;SDS011;11380;50.822;15.790;2023-03-26T22:15:00;60.90;;;54.63;;
22425;SDS011;11380;50.822;15.790;2023-03-26T22:20:08;60.87;;;54.50;;
22425;SDS011;11380;50.822;15.790;2023-03-26T22:25:20;62.73;;;56.10;;
22425;SDS011;11380;50.822;15.790;2023-03-26T22:30:28;60.97;;;54.67;;
22425;SDS011;11380;50.822;15.790;2023-03-26T22:35:37;61.07;;;54.70;;
22425;SDS011;11380;50.822;15.790;2023-03-26T22:40:52;60.63;;;54.27;;
22425;SDS011;11380;50.822;15.790;2023-03-26T22:46:03;61.70;;;55.43;;
22425;SDS011;11380;50.822;15.790;2023-03-26T22:51:13;60.98;;;54.55;;
22425;SDS011;11380;50.822;15.790;2023-03-26T22:56:21;62.20;;;55.63;;
22425;SDS011;11380;50.822;15.790;2023-03-26T23:01:29;60.70;;;54.30;;
22425;SDS011;11380;50.822;15.790;2023-03-26T23:06:38;61.07;;;54.90;;
22425;SDS011;11380;50.822;15.790;2023-03-26T23:11:47;59.97;;;53.83;;
22425;SDS011;11380;50.822;15.790;2023-03-26T23:16:56;60.27;;;54.17;;
22425;SDS011;11380;50.822;15.790;2023-03-26T23:22:04;57.80;;;52.20;;
22425;SDS011;11380;50.822;15.790;2023-03-26T23:27:13;57.33;;;51.77;;
22425;SDS011;11380;50.822;15.790;2023-03-26T23:32:22;119.17;;;70.85;;
22425;SDS011;11380;50.822;15.790;2023-03-26T23:37:33;75.77;;;58.73;;
22425;SDS011;11380;50.822;15.790;2023-03-26T23:42:39;57.67;;;51.97;;
22425;SDS011;11380;50.822;15.790;2023-03-26T23:47:46;60.63;;;54.43;;
22425;SDS011;11380;50.822;15.790;2023-03-26T23:52:54;59.27;;;53.47;;
22425;SDS011;11380;50.822;15.790;2023-03-26T23:58:03;57.20;;;51.57;;
